createdAt,value
2019-02-27T14:10:58.973Z,12.88
2019-02-27T14:13:30.897Z,14.35
2019-02-27T14:16:00.819Z,15.48
2019-02-27T14:18:32.249Z,14.80
2019-02-27T14:21:02.378Z,15.90
2019-02-27T14:23:32.932Z,14.23
2019-02-27T14:26:05.593Z,14.35
2019-02-27T14:28:32.915Z,14.50
2019-02-27T14:31:03.096Z,15.03
2019-02-27T14:33:32.248Z,15.70
2019-02-27T14:36:01.380Z,13.80
2019-02-27T14:38:31.192Z,14.07
2019-02-27T14:41:00.354Z,18.65
2019-02-27T14:43:29.514Z,15.10
2019-02-27T14:45:58.723Z,16.07
2019-02-27T14:48:27.866Z,13.88
2019-02-27T14:50:57.039Z,18.65
2019-02-27T14:53:26.212Z,12.73
2019-02-27T14:55:55.426Z,15.70
2019-02-27T14:58:25.076Z,14.05
2019-02-27T15:00:54.292Z,14.20
2019-02-27T15:03:29.246Z,15.53
2019-02-27T15:08:26.497Z,19.12
2019-02-27T15:10:55.659Z,18.40
2019-02-27T15:13:28.173Z,15.78
2019-02-27T15:15:55.785Z,16.93
2019-02-27T15:18:26.964Z,17.48
2019-02-27T15:21:01.745Z,18.10
2019-02-27T15:23:31.516Z,17.02
2019-02-27T15:26:00.697Z,15.63
2019-02-27T15:28:32.910Z,16.57
2019-02-27T15:31:00.691Z,16.57
2019-02-27T15:33:31.913Z,16.50
2019-02-27T15:36:01.108Z,17.10
2019-02-27T15:38:31.760Z,18.67
2019-02-27T15:41:03.230Z,14.95
2019-02-27T15:43:31.977Z,16.82
2019-02-27T15:46:01.455Z,17.00
2019-02-27T15:48:31.013Z,17.75
2019-02-27T15:51:03.158Z,17.98
2019-02-27T15:53:32.660Z,16.70
2019-02-27T15:56:01.820Z,17.82
2019-02-27T15:58:32.190Z,17.40
2019-02-27T16:01:01.880Z,17.30
2019-02-27T16:03:32.752Z,15.98
2019-02-27T16:06:05.542Z,19.12
2019-02-27T16:08:34.395Z,17.10
2019-02-27T16:11:03.554Z,21.17
2019-02-27T16:13:34.688Z,17.05
2019-02-27T16:16:04.793Z,17.20
2019-02-27T16:18:36.939Z,17.92
2019-02-27T16:21:08.264Z,18.15
2019-02-27T16:23:38.078Z,17.55
2019-02-27T16:26:07.540Z,18.73
2019-02-27T16:28:36.704Z,17.90
2019-02-27T16:31:06.342Z,21.93
2019-02-27T16:33:36.289Z,18.25
2019-02-27T16:36:05.439Z,19.20
2019-02-27T16:38:34.645Z,18.55
2019-02-27T16:41:03.854Z,23.35
2019-02-27T16:43:33.022Z,19.77
2019-02-27T16:46:02.226Z,18.00
2019-02-27T16:48:34.602Z,22.52
2019-02-27T16:51:03.275Z,20.57
2019-02-27T16:53:32.419Z,20.65
2019-02-27T16:56:01.787Z,21.95
2019-02-27T16:58:33.089Z,20.62
2019-02-27T17:01:01.880Z,22.17
2019-02-27T17:03:31.019Z,22.05
2019-02-27T17:06:00.180Z,19.73
2019-02-27T17:08:29.330Z,23.20
2019-02-27T17:10:59.756Z,20.50
2019-02-27T17:13:29.099Z,22.73
2019-02-27T17:15:58.254Z,22.05
2019-02-27T17:18:28.332Z,23.55
2019-02-27T17:20:58.564Z,23.25
2019-02-27T17:23:27.795Z,28.12
2019-02-27T17:25:57.356Z,24.82
2019-02-27T17:28:28.079Z,22.98
2019-02-27T17:30:57.558Z,22.40
2019-02-27T17:33:26.859Z,26.55
2019-02-27T17:35:59.298Z,24.50
2019-02-27T17:38:26.967Z,23.85
2019-02-27T17:40:56.285Z,22.42
2019-02-27T17:43:29.468Z,27.30
2019-02-27T17:45:56.850Z,23.15
2019-02-27T17:48:26.207Z,24.67
2019-02-27T17:50:55.612Z,26.17
2019-02-27T17:53:24.972Z,28.60
2019-02-27T17:55:54.311Z,29.18
2019-02-27T17:58:23.594Z,31.95
2019-02-27T18:00:54.640Z,29.77
2019-02-27T18:03:25.020Z,30.55
2019-02-27T18:05:56.415Z,30.72
2019-02-27T18:08:25.476Z,26.25
2019-02-27T18:10:54.693Z,32.53
2019-02-27T18:13:23.896Z,30.35
2019-02-27T18:15:53.377Z,28.42
2019-02-27T18:18:24.278Z,33.45
2019-02-27T18:20:56.815Z,34.05
2019-02-27T18:23:25.308Z,34.58
2019-02-27T18:25:54.783Z,33.42
2019-02-27T18:28:24.072Z,31.17
2019-02-27T18:30:53.842Z,27.90
2019-02-27T18:33:23.357Z,29.85
2019-02-27T18:35:54.467Z,33.00
2019-02-27T18:38:27.810Z,35.65
2019-02-27T18:40:57.373Z,34.18
2019-02-27T18:43:27.225Z,32.35
2019-02-27T18:45:57.524Z,32.95
2019-02-27T18:48:26.966Z,35.55
2019-02-27T18:50:58.627Z,31.25
2019-02-27T18:53:27.247Z,38.02
2019-02-27T18:56:03.259Z,35.35
2019-02-27T18:58:33.568Z,35.50
2019-02-27T19:01:04.177Z,35.92
2019-02-27T19:03:33.443Z,32.13
2019-02-27T19:06:02.597Z,38.70
2019-02-27T19:08:31.755Z,34.10
2019-02-27T19:11:01.284Z,33.75
2019-02-27T19:13:32.408Z,31.45
2019-02-27T19:16:02.207Z,35.55
2019-02-27T19:18:31.441Z,33.92
2019-02-27T19:21:03.328Z,33.33
2019-02-27T19:23:33.154Z,35.78
2019-02-27T19:26:02.377Z,35.73
2019-02-27T19:28:31.953Z,35.25
2019-02-27T19:31:01.207Z,34.60
2019-02-27T19:33:32.548Z,35.10
2019-02-27T19:36:04.340Z,36.17
2019-02-27T19:38:33.520Z,37.53
2019-02-27T19:41:04.129Z,39.95
2019-02-27T19:43:34.798Z,32.25
2019-02-27T19:46:04.078Z,32.03
2019-02-27T19:48:33.329Z,30.12
2019-02-27T19:51:03.853Z,30.17
2019-02-27T19:53:33.118Z,28.73
2019-02-27T19:56:08.504Z,29.82
2019-02-27T19:58:42.375Z,27.82
2019-02-27T20:01:11.728Z,29.52
2019-02-27T20:03:41.029Z,27.77
2019-02-27T20:06:10.343Z,27.13
2019-02-27T20:08:44.422Z,28.62
2019-02-27T20:11:10.406Z,31.12
2019-02-27T20:13:39.629Z,30.70
2019-02-27T20:16:08.960Z,33.53
2019-02-27T20:18:40.530Z,30.43
2019-02-27T20:21:10.659Z,29.48
2019-02-27T20:23:42.972Z,28.70
2019-02-27T20:26:14.410Z,28.77
2019-02-27T20:28:44.834Z,26.35
2019-02-27T20:31:17.979Z,29.23
2019-02-27T20:33:45.073Z,25.52
2019-02-27T20:36:14.347Z,27.15
2019-02-27T20:38:47.504Z,25.32
2019-02-27T20:41:17.658Z,27.82
2019-02-27T20:43:46.901Z,29.42
2019-02-27T20:46:16.999Z,26.97
2019-02-27T20:48:47.329Z,27.07
2019-02-27T20:51:16.607Z,28.70
2019-02-27T20:53:45.923Z,28.65
2019-02-27T20:56:15.698Z,25.37
2019-02-27T20:58:51.042Z,25.48
2019-02-27T21:01:17.236Z,23.42
2019-02-27T21:03:47.687Z,25.50
2019-02-27T21:06:16.858Z,27.20
2019-02-27T21:08:46.037Z,25.27
2019-02-27T21:11:15.187Z,23.85
2019-02-27T21:13:49.350Z,25.17
2019-02-27T21:16:16.872Z,26.62
2019-02-27T21:18:46.278Z,22.67
2019-02-27T21:21:16.945Z,24.52
2019-02-27T21:23:47.397Z,28.23
2019-02-27T21:26:16.607Z,26.23
2019-02-27T21:28:58.080Z,27.60
2019-02-27T21:31:19.280Z,24.45
2019-02-27T21:33:48.458Z,26.52
2019-02-27T21:36:19.003Z,26.00
2019-02-27T21:38:50.284Z,24.75
2019-02-27T21:41:20.017Z,26.57
2019-02-27T21:43:49.244Z,29.25
2019-02-27T21:46:18.395Z,26.85
2019-02-27T21:48:50.819Z,24.00
2019-02-27T21:51:19.968Z,23.02
2019-02-27T21:53:50.738Z,23.95
2019-02-27T21:56:19.907Z,24.23
2019-02-27T21:58:49.147Z,22.60
2019-02-27T22:01:22.003Z,22.73
2019-02-27T22:03:50.963Z,20.20
2019-02-27T22:06:21.639Z,19.95
2019-02-27T22:08:51.404Z,19.45
2019-02-27T22:11:24.155Z,19.65
2019-02-27T22:13:53.969Z,19.00
2019-02-27T22:16:23.127Z,20.65
2019-02-27T22:18:52.335Z,20.50
2019-02-27T22:21:21.518Z,19.75
2019-02-27T22:23:51.632Z,20.45
2019-02-27T22:26:20.800Z,16.97
2019-02-27T22:28:51.105Z,17.92
2019-02-27T22:31:21.467Z,16.85
2019-02-27T22:33:53.129Z,17.37
2019-02-27T22:36:21.453Z,17.37
2019-02-27T22:38:50.679Z,14.90
2019-02-27T22:41:19.809Z,15.98
2019-02-27T22:43:48.946Z,15.03
2019-02-27T22:46:18.092Z,15.35
2019-02-27T22:48:47.636Z,15.55
2019-02-27T22:51:16.881Z,15.05
2019-02-27T22:53:46.487Z,16.70
2019-02-27T22:56:16.785Z,18.65
2019-02-27T22:58:46.367Z,14.20
2019-02-27T23:01:21.164Z,14.28
2019-02-27T23:03:54.959Z,16.75
2019-02-27T23:06:23.875Z,14.03
2019-02-27T23:08:54.388Z,13.55
2019-02-27T23:11:24.103Z,16.82
2019-02-27T23:13:53.374Z,16.25
2019-02-27T23:16:22.519Z,13.78
2019-02-27T23:18:51.746Z,16.45
2019-02-27T23:21:21.145Z,16.97
2019-02-27T23:23:50.822Z,18.77
2019-02-27T23:26:22.441Z,16.52
2019-02-27T23:28:59.027Z,17.05
2019-02-27T23:31:29.547Z,18.55
2019-02-27T23:33:58.683Z,18.48
2019-02-27T23:36:28.157Z,16.10
2019-02-27T23:38:57.703Z,14.07
2019-02-27T23:41:56.543Z,15.45
2019-02-27T23:44:25.385Z,16.32
2019-02-27T23:46:57.464Z,16.95
2019-02-27T23:49:27.128Z,18.17
2019-02-27T23:51:56.353Z,16.45
2019-02-27T23:54:27.019Z,15.03
2019-02-27T23:56:56.587Z,16.12
2019-02-27T23:59:25.788Z,18.07
